Time;durP1;ratioP1;P1;durP2;ratioP2;P2;SDS_P1;SDS_P2;PMS_P1;PMS_P2;Temp;Humidity;BMP_temperature;BMP_pressure;BME280_temperature;BME280_humidity;BME280_pressure;Samples;Min_cycle;Max_cycle;Signal;HPM_P1;HPM_P2
2022/10/08 00:01:02;;;;;;;5.70;2.67;;;14.00;99.90;;;;;;4928176;29;20032;-86
2022/10/08 00:03:31;;;;;;;6.43;2.63;;;14.00;99.90;;;;;;4928276;29;20111;-85
2022/10/08 00:06:02;;;;;;;5.38;2.47;;;14.00;99.90;;;;;;4929691;29;20055;-86
2022/10/08 00:08:30;;;;;;;5.68;2.20;;;14.00;99.90;;;;;;4928653;29;20043;-85
2022/10/08 00:10:59;;;;;;;6.82;3.13;;;13.90;99.90;;;;;;4941403;29;20059;-85
2022/10/08 00:13:27;;;;;;;3.97;2.30;;;13.90;99.90;;;;;;4928264;29;20028;-85
2022/10/08 00:15:55;;;;;;;8.98;3.45;;;13.90;99.90;;;;;;4928412;29;20035;-85
2022/10/08 00:18:21;;;;;;;5.05;1.83;;;13.90;99.90;;;;;;4928417;29;20472;-86
2022/10/08 00:20:47;;;;;;;5.28;1.23;;;13.90;99.90;;;;;;4927725;29;20076;-85
2022/10/08 00:23:13;;;;;;;5.55;2.17;;;13.60;99.90;;;;;;4929678;29;20097;-85
2022/10/08 00:25:43;;;;;;;7.72;3.22;;;13.90;99.90;;;;;;4928171;29;20032;-85
2022/10/08 00:28:10;;;;;;;4.78;2.08;;;13.90;99.90;;;;;;4912504;29;20474;-85
2022/10/08 00:30:40;;;;;;;7.22;2.58;;;13.90;99.90;;;;;;4909792;29;20024;-86
2022/10/08 00:33:07;;;;;;;8.50;3.78;;;13.90;99.90;;;;;;4909290;29;20036;-85
2022/10/08 00:35:37;;;;;;;5.72;2.63;;;13.80;99.90;;;;;;4893716;29;20040;-86
2022/10/08 00:38:03;;;;;;;4.25;2.53;;;13.90;99.90;;;;;;4910596;29;20047;-85
2022/10/08 00:40:29;;;;;;;6.78;3.25;;;13.80;99.90;;;;;;4911617;29;20032;-86
2022/10/08 00:42:54;;;;;;;4.03;2.80;;;13.90;99.90;;;;;;4929376;29;20032;-85
2022/10/08 00:45:20;;;;;;;7.18;2.50;;;13.80;99.90;;;;;;4928184;29;20048;-85
2022/10/08 00:47:51;;;;;;;3.00;1.83;;;13.80;99.90;;;;;;4927972;29;20039;-85
2022/10/08 00:50:23;;;;;;;6.70;2.47;;;13.80;99.90;;;;;;4927735;29;20371;-87
2022/10/08 00:52:57;;;;;;;3.78;2.20;;;13.80;99.90;;;;;;4925548;29;20048;-85
2022/10/08 00:55:28;;;;;;;6.03;3.20;;;13.80;99.90;;;;;;4896500;29;20055;-85
2022/10/08 00:57:58;;;;;;;9.30;2.45;;;13.80;99.90;;;;;;4915149;29;20061;-86
2022/10/08 01:00:24;;;;;;;9.60;2.90;;;13.80;99.90;;;;;;4928470;29;20120;-85
2022/10/08 01:02:52;;;;;;;11.20;5.03;;;13.80;99.90;;;;;;4928795;29;20033;-86
2022/10/08 01:05:38;;;;;;;7.63;2.67;;;13.80;99.90;;;;;;4912412;29;20056;-85
2022/10/08 01:08:19;;;;;;;4.93;2.33;;;13.80;99.90;;;;;;4921938;29;20032;-85
2022/10/08 01:10:48;;;;;;;3.28;1.88;;;13.80;99.90;;;;;;4947336;29;20032;-86
2022/10/08 01:13:31;;;;;;;6.80;2.28;;;13.80;99.90;;;;;;4947440;29;20028;-85
2022/10/08 01:16:21;;;;;;;5.43;2.78;;;13.80;99.90;;;;;;4932424;29;20036;-85
2022/10/08 01:18:50;;;;;;;;;;;13.80;99.90;;;;;;4931947;29;20052;-85
2022/10/08 01:21:46;;;;;;;6.35;3.05;;;13.80;99.90;;;;;;4920682;29;19912;-85
2022/10/08 01:27:35;;;;;;;9.63;3.08;;;13.80;99.90;;;;;;4913727;29;20020;-85
2022/10/08 01:30:05;;;;;;;7.18;2.70;;;13.80;99.90;;;;;;4913400;29;20037;-85
2022/10/08 01:32:39;;;;;;;7.35;2.15;;;13.80;99.90;;;;;;4913584;29;20025;-86
2022/10/08 01:35:13;;;;;;;7.95;2.85;;;13.70;99.90;;;;;;4913370;29;20032;-86
2022/10/08 01:37:41;;;;;;;11.00;3.55;;;13.80;99.90;;;;;;4912308;29;20032;-85
2022/10/08 01:40:15;;;;;;;5.95;2.05;;;13.80;99.90;;;;;;4913014;29;20069;-85
2022/10/08 01:42:41;;;;;;;5.25;2.90;;;13.80;99.90;;;;;;4913293;29;20032;-85
2022/10/08 01:45:13;;;;;;;6.90;2.25;;;13.70;99.90;;;;;;4913397;29;20060;-85
2022/10/08 01:47:43;;;;;;;9.40;2.08;;;13.70;99.90;;;;;;4912089;29;20092;-85
2022/10/08 01:50:13;;;;;;;;;;;13.80;99.90;;;;;;4914495;29;20040;-85
2022/10/08 01:52:50;;;;;;;4.78;2.00;;;13.80;99.90;;;;;;4946810;29;20050;-85
2022/10/08 01:55:30;;;;;;;7.32;2.85;;;13.70;99.90;;;;;;4932122;29;20032;-84
2022/10/08 01:58:01;;;;;;;6.18;2.33;;;13.80;99.90;;;;;;4930798;29;20051;-85
2022/10/08 02:00:28;;;;;;;7.00;2.47;;;13.80;99.90;;;;;;4927540;29;20039;-85
2022/10/08 02:02:54;;;;;;;2.60;2.05;;;13.80;99.90;;;;;;4911621;29;20029;-86
2022/10/08 02:05:22;;;;;;;5.35;2.15;;;13.70;99.90;;;;;;4912164;29;20080;-85
2022/10/08 02:07:49;;;;;;;7.68;1.83;;;13.70;99.90;;;;;;4911708;29;20035;-85
2022/10/08 02:10:20;;;;;;;4.18;2.83;;;13.80;99.90;;;;;;4912829;29;20024;-85
2022/10/08 02:12:45;;;;;;;3.80;1.52;;;13.80;99.90;;;;;;4930249;29;20028;-85
2022/10/08 02:15:27;;;;;;;4.20;2.55;;;13.80;99.90;;;;;;4931967;29;20036;-85
2022/10/08 02:18:12;;;;;;;3.42;2.17;;;13.80;99.90;;;;;;4931698;29;20040;-84
2022/10/08 02:20:49;;;;;;;3.35;1.92;;;13.80;99.90;;;;;;4928710;29;20119;-85
2022/10/08 02:23:38;;;;;;;8.65;2.97;;;13.80;99.90;;;;;;4912856;29;20036;-85
2022/10/08 02:26:15;;;;;;;6.30;1.87;;;13.80;99.90;;;;;;4895745;29;20037;-84
2022/10/08 02:28:56;;;;;;;10.02;1.92;;;13.70;99.90;;;;;;4911447;29;20032;-84
2022/10/08 02:31:33;;;;;;;8.70;2.17;;;13.80;99.90;;;;;;4922038;29;20039;-85
2022/10/08 02:34:14;;;;;;;5.85;2.30;;;13.80;99.90;;;;;;4930205;29;20051;-85
2022/10/08 02:36:45;;;;;;;6.90;2.95;;;13.80;99.90;;;;;;4930321;29;20063;-85
2022/10/08 02:39:12;;;;;;;4.15;1.60;;;13.70;99.90;;;;;;4930125;29;20062;-85
2022/10/08 02:41:48;;;;;;;3.22;2.45;;;13.80;99.90;;;;;;4920729;29;20088;-85
2022/10/08 02:44:40;;;;;;;7.85;3.03;;;13.70;99.90;;;;;;4914062;29;20032;-85
2022/10/08 02:47:10;;;;;;;4.72;1.92;;;13.80;99.90;;;;;;4945963;29;20036;-85
2022/10/08 02:49:38;;;;;;;;;;;13.70;99.90;;;;;;4930407;29;20028;-85
2022/10/08 02:52:05;;;;;;;3.17;1.80;;;13.70;99.90;;;;;;4929452;29;19949;-85
2022/10/08 02:54:36;;;;;;;5.20;1.88;;;13.70;99.90;;;;;;4930053;29;20028;-85
2022/10/08 02:57:16;;;;;;;3.90;1.92;;;13.70;99.90;;;;;;4929932;29;20039;-85
2022/10/08 02:59:42;;;;;;;2.28;2.00;;;13.70;99.90;;;;;;4929786;29;20046;-85
2022/10/08 03:02:10;;;;;;;3.35;2.20;;;13.70;99.90;;;;;;4913812;29;20036;-85
2022/10/08 03:04:58;;;;;;;5.32;1.85;;;13.70;99.90;;;;;;4915340;29;20051;-85
2022/10/08 03:07:28;;;;;;;2.67;1.77;;;13.70;99.90;;;;;;4930088;29;20043;-85
2022/10/08 03:09:55;;;;;;;5.18;2.42;;;13.70;99.90;;;;;;4929671;29;20028;-86
2022/10/08 03:12:21;;;;;;;6.38;1.40;;;13.70;99.90;;;;;;4903838;29;20025;-85
2022/10/08 03:14:48;;;;;;;3.45;1.77;;;13.70;99.90;;;;;;4896152;29;20040;-85
2022/10/08 03:17:21;;;;;;;7.20;2.00;;;13.70;99.90;;;;;;4912223;29;20032;-85
2022/10/08 03:19:47;;;;;;;8.10;2.22;;;13.70;99.90;;;;;;4910599;29;20037;-85
2022/10/08 03:22:13;;;;;;;4.60;2.28;;;13.70;99.90;;;;;;4927297;29;20141;-85
2022/10/08 03:24:38;;;;;;;2.22;1.73;;;13.70;99.90;;;;;;4929376;29;20042;-86
2022/10/08 03:27:04;;;;;;;1.95;1.13;;;13.70;99.90;;;;;;4930649;29;20036;-86
2022/10/08 03:29:30;;;;;;;4.32;1.70;;;13.70;99.90;;;;;;4929439;29;20063;-86
2022/10/08 03:31:56;;;;;;;5.18;1.60;;;13.70;99.90;;;;;;4929107;29;20048;-85
2022/10/08 03:34:24;;;;;;;4.30;2.05;;;13.70;99.90;;;;;;4929452;29;20032;-86
2022/10/08 03:36:49;;;;;;;7.93;2.50;;;13.70;99.90;;;;;;4945167;29;20020;-85
2022/10/08 03:39:15;;;;;;;2.50;1.70;;;13.70;99.90;;;;;;4913206;29;20038;-86
2022/10/08 03:41:41;;;;;;;9.65;1.98;;;13.70;99.90;;;;;;4941357;29;20104;-85
2022/10/08 03:44:09;;;;;;;7.18;1.98;;;13.70;99.90;;;;;;4911489;29;20032;-85
2022/10/08 03:46:35;;;;;;;5.65;2.33;;;13.60;99.90;;;;;;4910113;29;20044;-86
2022/10/08 03:49:01;;;;;;;6.78;1.50;;;13.60;99.90;;;;;;4911210;29;20075;-85
2022/10/08 03:51:27;;;;;;;2.28;1.75;;;13.70;99.90;;;;;;4919698;29;20087;-85
2022/10/08 03:53:52;;;;;;;2.92;1.92;;;13.70;99.90;;;;;;4928785;29;20100;-85
2022/10/08 03:56:23;;;;;;;3.00;1.85;;;13.60;99.90;;;;;;4928878;29;20039;-85
2022/10/08 03:58:56;;;;;;;4.80;1.80;;;13.60;99.90;;;;;;4930248;29;20064;-86
2022/10/08 04:01:22;;;;;;;3.25;1.27;;;13.60;99.90;;;;;;4928725;29;20032;-85
2022/10/08 04:03:48;;;;;;;8.52;2.13;;;13.60;99.90;;;;;;4912668;29;20048;-85
2022/10/08 04:06:14;;;;;;;9.23;3.05;;;13.60;99.90;;;;;;4912852;29;20135;-85
2022/10/08 04:08:40;;;;;;;2.97;1.60;;;13.60;99.90;;;;;;4928743;29;20040;-85
2022/10/08 04:11:08;;;;;;;6.05;2.25;;;13.60;99.90;;;;;;4928423;29;20031;-85
2022/10/08 04:13:35;;;;;;;3.58;1.77;;;13.60;99.90;;;;;;4912784;29;20043;-85
2022/10/08 04:16:15;;;;;;;4.80;2.05;;;13.60;99.90;;;;;;4912737;29;20103;-85
2022/10/08 04:18:41;;;;;;;2.08;1.80;;;13.60;99.90;;;;;;4928763;29;20043;-85
2022/10/08 04:21:10;;;;;;;1.63;1.20;;;13.60;99.90;;;;;;4921604;29;20040;-85
2022/10/08 04:23:37;;;;;;;2.40;1.17;;;13.60;99.90;;;;;;4909564;29;20033;-84
2022/10/08 04:26:04;;;;;;;3.10;2.10;;;13.60;99.90;;;;;;4909515;29;20040;-85
2022/10/08 04:28:30;;;;;;;5.63;2.72;;;;;;;;;;4910533;29;20035;-85
2022/10/08 04:30:57;;;;;;;3.80;1.90;;;13.10;99.90;;;;;;4910971;29;20029;-84
2022/10/08 04:33:23;;;;;;;4.63;2.22;;;13.60;99.90;;;;;;4893809;29;20020;-85
2022/10/08 04:35:49;;;;;;;2.20;1.90;;;13.60;99.90;;;;;;4909428;29;20459;-85
2022/10/08 04:38:15;;;;;;;6.20;2.30;;;13.50;99.90;;;;;;4910820;29;20057;-85
2022/10/08 04:40:40;;;;;;;2.30;1.45;;;13.60;99.90;;;;;;4920159;29;20028;-86
2022/10/08 04:43:06;;;;;;;3.58;2.35;;;13.50;99.90;;;;;;4909492;29;20133;-85
2022/10/08 04:45:32;;;;;;;6.45;1.95;;;13.50;99.90;;;;;;4909310;29;20037;-86
2022/10/08 04:47:58;;;;;;;4.53;1.70;;;13.50;99.90;;;;;;4895487;29;20189;-85
2022/10/08 04:50:23;;;;;;;3.45;1.98;;;13.50;99.90;;;;;;4928163;29;20470;-86
2022/10/08 04:52:49;;;;;;;2.28;2.10;;;13.50;99.90;;;;;;4926459;29;20151;-85
2022/10/08 04:55:16;;;;;;;3.67;2.20;;;13.50;99.90;;;;;;4906734;29;20042;-85
2022/10/08 04:57:41;;;;;;;5.00;2.47;;;13.50;99.90;;;;;;4895620;29;20032;-86
2022/10/08 05:00:08;;;;;;;2.03;1.83;;;13.50;99.90;;;;;;4893786;29;20040;-85
2022/10/08 05:02:34;;;;;;;3.33;2.00;;;;;;;;;;4921966;29;20088;-85
2022/10/08 05:05:00;;;;;;;3.95;2.58;;;13.50;99.90;;;;;;4904261;29;20143;-86
2022/10/08 05:07:28;;;;;;;2.55;2.28;;;13.50;99.90;;;;;;4929642;29;20027;-85
2022/10/08 05:09:53;;;;;;;4.07;2.28;;;13.50;99.90;;;;;;4927892;29;20075;-85
2022/10/08 05:12:22;;;;;;;4.75;3.45;;;13.50;99.90;;;;;;4925420;29;20611;-85
2022/10/08 05:14:48;;;;;;;6.90;2.17;;;;;;;;;;4908015;29;20060;-86
2022/10/08 05:17:15;;;;;;;5.43;2.53;;;;;;;;;;4903105;29;20036;-85
2022/10/08 05:19:41;;;;;;;6.43;3.47;;;;;;;;;;4903599;29;20450;-86
2022/10/08 05:22:07;;;;;;;6.13;2.92;;;;;;;;;;4911927;29;20060;-85
2022/10/08 05:24:33;;;;;;;4.88;3.10;;;;;;;;;;4899525;29;20037;-85
2022/10/08 05:26:59;;;;;;;4.95;4.53;;;13.50;99.90;;;;;;4904361;29;20063;-85
2022/10/08 05:29:27;;;;;;;7.90;5.38;;;13.40;99.90;;;;;;4908680;29;20024;-85
2022/10/08 05:31:53;;;;;;;7.20;5.55;;;13.40;99.90;;;;;;4917056;29;20389;-85
2022/10/08 05:34:19;;;;;;;5.22;4.75;;;13.40;99.90;;;;;;4927283;29;20035;-85
2022/10/08 05:36:45;;;;;;;7.35;4.28;;;13.30;99.90;;;;;;4911775;29;20469;-85
2022/10/08 05:39:10;;;;;;;6.80;5.50;;;13.40;99.90;;;;;;4927421;29;20095;-85
2022/10/08 05:41:37;;;;;;;7.63;5.57;;;13.40;99.90;;;;;;4928451;29;20032;-85
2022/10/08 05:44:04;;;;;;;6.82;5.40;;;13.40;99.90;;;;;;4913999;29;20028;-85
2022/10/08 05:46:33;;;;;;;11.05;7.05;;;13.40;99.90;;;;;;4914384;29;20029;-86
2022/10/08 05:49:00;;;;;;;10.27;6.43;;;13.40;99.90;;;;;;4929216;29;20028;-85
2022/10/08 05:51:27;;;;;;;12.20;6.75;;;13.40;99.90;;;;;;4894738;29;20029;-85
2022/10/08 05:53:55;;;;;;;12.98;8.57;;;13.30;99.90;;;;;;4909360;29;20024;-86
2022/10/08 05:56:22;;;;;;;9.95;7.00;;;13.40;99.90;;;;;;4898976;29;20032;-85
2022/10/08 05:58:49;;;;;;;12.13;8.82;;;13.40;99.90;;;;;;4911533;29;20020;-85
2022/10/08 06:01:23;;;;;;;12.82;10.23;;;13.40;99.90;;;;;;4913725;29;20030;-86
2022/10/08 06:03:50;;;;;;;15.70;9.90;;;13.40;99.90;;;;;;4929106;29;20052;-87
2022/10/08 06:06:16;;;;;;;15.02;11.32;;;13.40;99.90;;;;;;4928207;29;20024;-86
2022/10/08 06:08:42;;;;;;;16.27;10.73;;;13.40;99.90;;;;;;4928357;29;20129;-86
2022/10/08 06:11:08;;;;;;;14.88;9.90;;;13.40;99.90;;;;;;4931862;29;20036;-85
2022/10/08 06:13:34;;;;;;;11.93;10.48;;;13.40;99.90;;;;;;4914687;29;20017;-86
2022/10/08 06:16:07;;;;;;;18.90;9.88;;;13.40;99.90;;;;;;4925182;29;20096;-85
2022/10/08 06:18:36;;;;;;;19.50;11.95;;;13.40;99.90;;;;;;4913926;29;20032;-85
2022/10/08 06:21:07;;;;;;;18.40;11.02;;;13.50;99.90;;;;;;4930004;29;20024;-86
2022/10/08 06:23:33;;;;;;;23.27;11.30;;;13.30;99.90;;;;;;4929647;29;20055;-85
2022/10/08 06:26:08;;;;;;;18.77;15.18;;;13.40;99.90;;;;;;4923397;29;20036;-86
2022/10/08 06:28:35;;;;;;;14.40;11.02;;;13.40;99.90;;;;;;4910054;29;20028;-86
2022/10/08 06:31:01;;;;;;;17.63;14.35;;;13.40;99.90;;;;;;4919138;29;20032;-86
2022/10/08 06:33:30;;;;;;;22.73;14.32;;;13.40;99.90;;;;;;4930980;29;20057;-85
2022/10/08 06:35:56;;;;;;;22.58;15.27;;;13.40;99.90;;;;;;4929821;29;20051;-85
2022/10/08 06:38:22;;;;;;;31.88;16.65;;;13.40;99.90;;;;;;4928193;29;20028;-85
2022/10/08 06:40:50;;;;;;;28.67;14.52;;;13.40;99.90;;;;;;4929681;29;20028;-86
2022/10/08 06:43:18;;;;;;;17.27;14.27;;;13.40;99.90;;;;;;4913462;29;20092;-85
2022/10/08 06:45:45;;;;;;;16.92;15.23;;;13.40;99.90;;;;;;4909760;29;20028;-85
2022/10/08 06:48:12;;;;;;;21.33;15.73;;;13.30;99.90;;;;;;4925666;29;20509;-86
2022/10/08 06:50:38;;;;;;;19.10;13.93;;;13.30;99.90;;;;;;4913876;29;20498;-85
2022/10/08 06:53:05;;;;;;;16.73;15.00;;;13.30;99.90;;;;;;4905979;29;20024;-85
2022/10/08 06:55:33;;;;;;;14.65;12.60;;;13.30;99.90;;;;;;4925413;29;20036;-85
2022/10/08 06:58:00;;;;;;;14.95;13.10;;;13.30;99.90;;;;;;4913640;29;20099;-85
2022/10/08 07:00:26;;;;;;;17.90;12.13;;;13.40;99.90;;;;;;4930819;29;20043;-85
2022/10/08 07:02:52;;;;;;;19.67;13.25;;;13.30;99.90;;;;;;4929808;29;20036;-86
2022/10/08 07:05:18;;;;;;;16.23;10.02;;;13.40;99.90;;;;;;4916037;29;20053;-85
2022/10/08 07:07:44;;;;;;;17.13;10.02;;;13.30;99.90;;;;;;4895349;29;20036;-86
2022/10/08 07:10:11;;;;;;;14.57;10.20;;;13.30;99.90;;;;;;4911966;29;20067;-85
2022/10/08 07:12:37;;;;;;;14.38;10.05;;;13.30;99.90;;;;;;4911755;29;20021;-86
2022/10/08 07:15:03;;;;;;;13.45;9.00;;;13.20;99.90;;;;;;4910732;29;20039;-85
2022/10/08 07:17:28;;;;;;;11.27;8.20;;;13.30;99.90;;;;;;4913742;29;20028;-86
2022/10/08 07:19:55;;;;;;;16.00;8.63;;;13.30;99.90;;;;;;4929198;29;20048;-85
2022/10/08 07:22:22;;;;;;;11.82;8.35;;;13.30;99.90;;;;;;4929465;29;20044;-86
2022/10/08 07:24:47;;;;;;;12.57;7.75;;;13.30;99.90;;;;;;4928406;29;20040;-86
2022/10/08 07:27:14;;;;;;;13.13;7.30;;;13.30;99.90;;;;;;4911762;29;20016;-86
2022/10/08 07:29:40;;;;;;;14.93;7.82;;;13.30;99.90;;;;;;4917089;29;20028;-86
2022/10/08 07:32:06;;;;;;;8.05;6.57;;;13.40;99.90;;;;;;4929172;29;20024;-85
2022/10/08 07:34:32;;;;;;;16.58;8.15;;;13.40;99.90;;;;;;4928964;29;20044;-85
2022/10/08 07:36:58;;;;;;;9.25;6.43;;;13.50;99.90;;;;;;4929282;29;20144;-86
2022/10/08 07:39:24;;;;;;;9.57;5.38;;;13.50;99.90;;;;;;4902942;29;20044;-86
2022/10/08 07:41:49;;;;;;;8.95;6.28;;;13.50;99.90;;;;;;4911296;29;20060;-86
2022/10/08 07:44:16;;;;;;;6.85;5.15;;;13.50;99.90;;;;;;4910358;29;20084;-86
2022/10/08 07:46:47;;;;;;;16.55;5.43;;;13.50;99.90;;;;;;4895208;29;20085;-86
2022/10/08 07:49:14;;;;;;;11.73;5.00;;;13.40;99.90;;;;;;4910169;29;20044;-86
2022/10/08 07:51:42;;;;;;;9.82;6.00;;;13.40;99.90;;;;;;4910302;29;20029;-86
2022/10/08 07:54:12;;;;;;;6.75;4.90;;;13.40;99.90;;;;;;4925819;29;20048;-86
2022/10/08 07:56:38;;;;;;;7.05;4.60;;;13.40;99.90;;;;;;4931586;29;20606;-85
2022/10/08 07:59:04;;;;;;;16.20;6.05;;;13.40;99.90;;;;;;4912882;29;20028;-86
2022/10/08 08:01:32;;;;;;;9.07;4.38;;;13.50;99.90;;;;;;4929154;29;20390;-86
2022/10/08 08:04:03;;;;;;;6.15;4.63;;;13.50;99.90;;;;;;4927334;29;20120;-86
2022/10/08 08:06:31;;;;;;;12.95;5.47;;;13.50;99.90;;;;;;4928118;29;20028;-86
2022/10/08 08:08:59;;;;;;;11.60;4.50;;;13.50;99.90;;;;;;4929952;29;20040;-85
2022/10/08 08:11:25;;;;;;;4.75;4.32;;;13.50;99.90;;;;;;4928702;29;20039;-86
2022/10/08 08:13:52;;;;;;;7.95;4.57;;;13.50;99.90;;;;;;4929753;29;20024;-86
2022/10/08 08:16:21;;;;;;;11.02;5.18;;;13.50;99.90;;;;;;4920077;29;20040;-87
2022/10/08 08:18:49;;;;;;;5.87;4.43;;;13.50;99.90;;;;;;4945756;29;20028;-86
2022/10/08 08:21:18;;;;;;;7.20;4.25;;;13.60;99.90;;;;;;4929210;29;20036;-86
2022/10/08 08:23:49;;;;;;;7.35;4.45;;;13.60;99.90;;;;;;4928523;29;20036;-86
2022/10/08 08:26:27;;;;;;;10.48;5.65;;;13.70;99.90;;;;;;4920333;29;20044;-86
2022/10/08 08:29:07;;;;;;;8.57;4.60;;;13.70;99.90;;;;;;4909554;29;20036;-87
2022/10/08 08:31:36;;;;;;;4.50;4.20;;;13.80;99.90;;;;;;4893859;29;20056;-86
2022/10/08 08:34:06;;;;;;;5.85;2.95;;;13.80;99.90;;;;;;4903063;29;20039;-85
2022/10/08 08:36:38;;;;;;;7.70;4.18;;;13.80;99.90;;;;;;4929631;29;20036;-86
2022/10/08 08:39:06;;;;;;;5.40;2.97;;;13.90;99.90;;;;;;4943102;29;20039;-86
2022/10/08 08:41:47;;;;;;;6.82;4.63;;;13.90;99.90;;;;;;4910089;29;20032;-87
2022/10/08 08:44:35;;;;;;;4.93;2.80;;;14.00;99.90;;;;;;4925404;29;20043;-86
2022/10/08 08:47:07;;;;;;;7.63;3.38;;;14.10;99.90;;;;;;4925045;29;20088;-86
2022/10/08 08:49:42;;;;;;;7.45;3.55;;;14.10;99.90;;;;;;4911919;29;20035;-86
2022/10/08 08:52:12;;;;;;;5.72;2.33;;;14.10;99.90;;;;;;4928503;29;20032;-86
2022/10/08 08:54:38;;;;;;;5.38;3.83;;;14.20;99.90;;;;;;4929270;29;20039;-86
2022/10/08 08:57:31;;;;;;;5.32;2.10;;;14.20;99.90;;;;;;4927747;29;20032;-85
2022/10/08 09:00:14;;;;;;;5.68;3.55;;;14.20;99.90;;;;;;4939864;29;20111;-86
2022/10/08 09:03:04;;;;;;;4.63;2.60;;;14.20;99.90;;;;;;4938085;29;20945;-87
2022/10/08 09:05:34;;;;;;;5.80;3.05;;;14.20;99.90;;;;;;4909330;29;20036;-85
2022/10/08 09:08:14;;;;;;;2.50;2.30;;;14.10;99.90;;;;;;4912129;29;20095;-86
2022/10/08 09:10:58;;;;;;;6.40;3.17;;;14.10;99.90;;;;;;4912728;29;20102;-86
2022/10/08 09:13:56;;;;;;;7.05;2.15;;;14.20;99.90;;;;;;4924165;29;20032;-86
2022/10/08 09:16:22;;;;;;;3.60;2.72;;;14.20;99.90;;;;;;4929856;29;20039;-86
2022/10/08 09:18:50;;;;;;;4.55;2.40;;;14.20;99.90;;;;;;4919673;29;20389;-85
2022/10/08 09:21:17;;;;;;;3.00;1.67;;;14.10;99.90;;;;;;4936603;29;20032;-86
2022/10/08 09:23:44;;;;;;;3.22;2.22;;;14.10;99.90;;;;;;4930208;29;20032;-85
2022/10/08 09:26:14;;;;;;;3.30;2.03;;;14.10;99.90;;;;;;4927954;29;20874;-86
2022/10/08 09:28:45;;;;;;;6.47;2.92;;;14.30;99.90;;;;;;4929191;29;20106;-85
2022/10/08 09:31:31;;;;;;;6.93;1.88;;;14.50;99.90;;;;;;4914542;29;20028;-86
2022/10/08 09:34:09;;;;;;;6.35;1.80;;;14.70;99.90;;;;;;4905270;29;20057;-86
2022/10/08 09:36:59;;;;;;;12.82;3.08;;;14.60;99.90;;;;;;4911474;29;20041;-85
2022/10/08 09:39:26;;;;;;;;;;;14.60;99.90;;;;;;4941974;29;20036;-85
2022/10/08 09:42:07;;;;;;;7.28;2.05;;;14.60;99.90;;;;;;4923417;29;19907;-85
2022/10/08 09:44:45;;;;;;;4.30;2.45;;;14.70;99.90;;;;;;4930847;29;20036;-86
2022/10/08 09:47:20;;;;;;;4.43;1.90;;;14.70;99.90;;;;;;4927425;29;20035;-86
2022/10/08 09:50:06;;;;;;;3.85;2.40;;;14.70;99.90;;;;;;4912016;29;20036;-86
2022/10/08 09:52:34;;;;;;;7.35;2.75;;;14.80;99.90;;;;;;4908055;29;20072;-86
2022/10/08 09:55:08;;;;;;;1.75;1.30;;;14.90;99.90;;;;;;4911208;29;20499;-86
2022/10/08 09:57:42;;;;;;;3.65;1.63;;;15.00;99.90;;;;;;4913166;29;20483;-86
2022/10/08 10:00:34;;;;;;;3.40;1.40;;;15.20;99.90;;;;;;4932094;29;20070;-86
2022/10/08 10:03:01;;;;;;;3.35;2.10;;;15.40;99.90;;;;;;4931859;29;20032;-86
2022/10/08 10:05:33;;;;;;;6.07;1.73;;;15.40;99.90;;;;;;4929402;29;20509;-86
2022/10/08 10:08:00;;;;;;;5.45;2.60;;;15.60;99.90;;;;;;4923939;29;20044;-87
2022/10/08 10:10:37;;;;;;;6.13;2.63;;;15.60;99.90;;;;;;4921589;29;20032;-88
2022/10/08 10:13:18;;;;;;;7.20;2.47;;;15.50;99.90;;;;;;4911704;29;20032;-87
2022/10/08 10:15:57;;;;;;;6.53;2.30;;;15.50;99.90;;;;;;4912727;29;20500;-87
2022/10/08 10:18:53;;;;;;;2.95;1.45;;;15.60;99.90;;;;;;4923026;29;20402;-87
2022/10/08 10:21:34;;;;;;;3.40;1.45;;;15.80;99.90;;;;;;4929732;29;20040;-86
2022/10/08 10:24:20;;;;;;;5.28;2.28;;;15.80;99.90;;;;;;4930113;29;20039;-86
2022/10/08 10:26:47;;;;;;;2.35;1.48;;;15.70;99.90;;;;;;4930966;29;20040;-86
2022/10/08 10:29:18;;;;;;;4.35;1.80;;;15.60;99.90;;;;;;4914588;29;20051;-86
2022/10/08 10:31:56;;;;;;;4.07;1.95;;;15.60;99.90;;;;;;4929986;29;20039;-86
2022/10/08 10:34:26;;;;;;;2.95;1.98;;;15.50;99.90;;;;;;4933207;29;20167;-83
2022/10/08 10:36:58;;;;;;;2.25;0.68;;;15.70;99.90;;;;;;4932111;29;20032;-83
2022/10/08 10:39:30;;;;;;;2.85;1.80;;;15.60;99.90;;;;;;4935386;29;20032;-83
2022/10/08 10:42:18;;;;;;;3.63;0.93;;;15.50;99.90;;;;;;4935010;29;20039;-83
2022/10/08 10:45:25;;;;;;;5.40;0.90;;;15.30;99.90;;;;;;4934384;29;20084;-84
2022/10/08 10:47:53;;;;;;;15.30;1.70;;;15.20;99.90;;;;;;4913422;29;20157;-83
2022/10/08 10:50:40;;;;;;;5.45;1.73;;;15.10;99.90;;;;;;4914060;29;20020;-84
2022/10/08 10:53:29;;;;;;;6.03;1.75;;;15.20;99.90;;;;;;4913046;29;20048;-84
2022/10/08 10:56:07;;;;;;;6.50;1.52;;;15.40;99.90;;;;;;4929108;29;20047;-82
2022/10/08 10:59:05;;;;;;;1.25;1.15;;;15.60;99.90;;;;;;4931794;29;20036;-84
2022/10/08 11:01:49;;;;;;;4.55;1.67;;;15.60;99.90;;;;;;4934527;29;20048;-84
2022/10/08 11:04:24;;;;;;;10.10;1.90;;;15.80;99.90;;;;;;4952502;29;20120;-84
2022/10/08 11:07:12;;;;;;;5.43;0.90;;;15.90;99.90;;;;;;4931397;29;20032;-84
2022/10/08 11:10:05;;;;;;;3.35;1.38;;;16.10;99.90;;;;;;4936801;29;20036;-84
2022/10/08 11:12:43;;;;;;;1.70;0.80;;;16.10;99.90;;;;;;4929690;29;20063;-84
2022/10/08 11:15:20;;;;;;;3.35;1.02;;;16.10;99.90;;;;;;4917915;29;20063;-84
2022/10/08 11:18:01;;;;;;;4.90;1.48;;;15.80;99.90;;;;;;4920986;29;20035;-84
2022/10/08 11:20:36;;;;;;;4.28;1.15;;;15.90;99.90;;;;;;4920490;29;20055;-84
2022/10/08 11:23:10;;;;;;;2.42;1.77;;;15.90;99.90;;;;;;4925626;29;20478;-84
2022/10/08 11:26:09;;;;;;;11.10;1.65;;;15.90;99.90;;;;;;4937974;29;20087;-85
2022/10/08 11:29:03;;;;;;;3.97;1.33;;;16.20;99.90;;;;;;4899820;29;20028;-84
2022/10/08 11:31:40;;;;;;;5.28;1.58;;;16.20;99.90;;;;;;4928213;29;20031;-84
2022/10/08 11:34:16;;;;;;;2.58;1.08;;;16.40;99.90;;;;;;4936336;29;20024;-84
2022/10/08 11:37:10;;;;;;;2.35;0.73;;;16.50;99.90;;;;;;4932057;29;20060;-84
2022/10/08 11:39:42;;;;;;;3.97;0.77;;;16.70;99.90;;;;;;4935725;29;20028;-85
2022/10/08 11:42:24;;;;;;;4.13;0.80;;;16.70;99.90;;;;;;4932944;29;20055;-84
2022/10/08 11:44:50;;;;;;;2.95;1.52;;;16.90;99.90;;;;;;4933371;29;20396;-84
2022/10/08 11:47:41;;;;;;;1.92;0.75;;;16.80;99.90;;;;;;4947757;29;20031;-84
2022/10/08 11:50:24;;;;;;;3.72;1.10;;;16.80;99.90;;;;;;4939726;29;20066;-83
2022/10/08 11:52:52;;;;;;;4.82;1.50;;;16.60;99.90;;;;;;4938968;29;20032;-84
2022/10/08 11:55:25;;;;;;;2.63;1.23;;;16.30;99.90;;;;;;4922493;29;20059;-84
2022/10/08 11:58:01;;;;;;;3.97;1.25;;;16.40;99.90;;;;;;4919300;29;20028;-84
2022/10/08 12:00:36;;;;;;;4.90;1.33;;;15.70;99.90;;;;;;4936791;29;20036;-84
2022/10/08 12:03:06;;;;;;;7.75;0.98;;;16.50;99.90;;;;;;4936263;29;20064;-84
2022/10/08 12:05:41;;;;;;;1.67;0.50;;;16.60;99.90;;;;;;4934458;29;20032;-85
2022/10/08 12:08:07;;;;;;;0.90;0.77;;;;;;;;;;4928650;29;20515;-84
2022/10/08 12:10:36;;;;;;;1.60;0.68;;;16.30;99.90;;;;;;4904388;29;20393;-84
2022/10/08 12:13:27;;;;;;;8.50;1.52;;;16.20;99.90;;;;;;4914996;29;20068;-84
2022/10/08 12:15:54;;;;;;;1.35;1.20;;;16.30;99.90;;;;;;4925573;29;20048;-84
2022/10/08 12:18:24;;;;;;;1.45;0.28;;;16.20;99.90;;;;;;4932040;29;20025;-85
2022/10/08 12:21:28;;;;;;;4.65;1.35;;;16.20;99.90;;;;;;4932178;29;20020;-84
2022/10/08 12:23:54;;;;;;;1.25;0.63;;;16.00;99.90;;;;;;4878644;29;20033;-84
2022/10/08 12:26:20;;;;;;;1.50;0.77;;;16.00;99.90;;;;;;4892128;29;20063;-84
2022/10/08 12:28:49;;;;;;;2.08;0.98;;;15.90;99.90;;;;;;4885776;29;20133;-84
2022/10/08 12:31:25;;;;;;;5.18;1.23;;;16.00;99.90;;;;;;4932383;29;20039;-84
2022/10/08 12:33:56;;;;;;;4.13;1.05;;;16.00;99.90;;;;;;4916264;29;20032;-84
2022/10/08 12:36:48;;;;;;;4.18;1.40;;;16.00;99.90;;;;;;4933693;29;20034;-84
2022/10/08 12:39:39;;;;;;;0.57;0.57;;;16.20;99.90;;;;;;4914531;29;20382;-85
2022/10/08 12:42:06;;;;;;;4.03;0.80;;;;;;;;;;4916164;29;20125;-84
2022/10/08 12:44:32;;;;;;;3.17;1.25;;;;;;;;;;4917525;29;20401;-85
2022/10/08 12:47:15;;;;;;;0.60;0.57;;;16.10;99.90;;;;;;4915544;29;20065;-83
2022/10/08 12:49:51;;;;;;;1.95;1.10;;;16.20;99.90;;;;;;4937354;29;20028;-85
2022/10/08 12:52:18;;;;;;;2.55;0.95;;;16.40;99.90;;;;;;4936858;29;20028;-85
2022/10/08 12:54:51;;;;;;;3.83;0.85;;;16.30;99.90;;;;;;4939574;29;20028;-84
2022/10/08 12:57:37;;;;;;;0.75;0.52;;;16.30;99.90;;;;;;4940428;29;20014;-84
2022/10/08 13:00:19;;;;;;;4.95;1.58;;;16.10;99.90;;;;;;4934060;29;20312;-84
2022/10/08 13:02:58;;;;;;;7.25;1.20;;;16.10;99.90;;;;;;4939405;29;20043;-85
2022/10/08 13:05:30;;;;;;;9.63;1.63;;;16.40;99.90;;;;;;4940762;29;20111;-85
2022/10/08 13:07:57;;;;;;;4.00;1.23;;;;;;;;;;4940272;29;20023;-84
2022/10/08 13:10:28;;;;;;;1.67;0.70;;;15.90;99.90;;;;;;4932632;29;20029;-84
2022/10/08 13:13:36;;;;;;;4.45;1.10;;;15.90;99.90;;;;;;4930681;29;20056;-84
2022/10/08 13:16:03;;;;;;;5.72;1.67;;;16.00;99.90;;;;;;4916244;29;20044;-84